createdAt,value
2019-02-24T00:02:08.754Z,74.81
2019-02-24T00:04:55.834Z,74.70
2019-02-24T00:07:42.900Z,74.95
2019-02-24T00:10:30.595Z,73.63
2019-02-24T00:13:18.308Z,74.63
2019-02-24T00:16:05.542Z,75.17
2019-02-24T00:18:52.745Z,75.22
2019-02-24T00:21:42.595Z,75.56
2019-02-24T00:24:43.867Z,75.56
2019-02-24T00:30:37.461Z,76.10
2019-02-24T00:33:24.502Z,75.82
2019-02-24T00:36:26.225Z,75.59
2019-02-24T00:39:13.324Z,75.71
2019-02-24T00:42:01.438Z,75.65
2019-02-24T00:44:48.602Z,75.67
2019-02-24T00:56:54.915Z,76.42
2019-02-24T00:59:41.854Z,76.70
2019-02-24T01:02:28.999Z,76.29
2019-02-24T01:05:16.752Z,77.03
2019-02-24T01:08:04.171Z,77.19
2019-02-24T01:10:51.423Z,77.11
2019-02-24T01:16:45.427Z,76.94
2019-02-24T01:22:39.329Z,76.91
2019-02-24T01:28:47.447Z,77.02
2019-02-24T01:31:34.303Z,77.12
2019-02-24T01:37:28.081Z,77.02
2019-02-24T01:40:15.798Z,76.02
2019-02-24T01:43:03.995Z,76.26
2019-02-24T01:52:05.570Z,76.25
2019-02-24T02:01:03.881Z,76.24
2019-02-24T02:10:04.223Z,76.00
2019-02-24T02:15:58.484Z,76.13
2019-02-24T02:34:18.664Z,77.78
2019-02-24T02:37:06.441Z,77.93
2019-02-24T02:43:00.551Z,77.35
2019-02-24T02:45:48.094Z,77.38
2019-02-24T03:01:02.253Z,77.62
2019-02-24T03:03:49.860Z,77.49
2019-02-24T03:06:55.644Z,77.16
2019-02-24T03:16:03.060Z,77.44
2019-02-24T03:18:49.818Z,77.62
2019-02-24T03:21:44.546Z,77.60
2019-02-24T03:24:31.876Z,77.46
2019-02-24T03:27:20.585Z,77.54
2019-02-24T03:30:08.129Z,77.20
2019-02-24T03:36:01.729Z,77.54
2019-02-24T03:38:49.037Z,77.41
2019-02-24T03:41:36.466Z,77.62
2019-02-24T03:44:23.390Z,77.88
2019-02-24T03:47:18.889Z,78.05
2019-02-24T03:53:12.452Z,77.76
2019-02-24T03:55:59.793Z,77.69
2019-02-24T03:58:46.931Z,77.46
2019-02-24T04:04:43.561Z,77.72
2019-02-24T04:07:31.200Z,77.64
2019-02-24T04:28:59.226Z,77.63
2019-02-24T04:41:20.199Z,77.62
2019-02-24T04:44:08.267Z,77.52
2019-02-24T04:46:55.809Z,77.45
2019-02-24T04:49:43.340Z,77.30
2019-02-24T04:52:31.017Z,76.35
2019-02-24T04:55:18.546Z,75.56
2019-02-24T04:58:13.536Z,76.27
2019-02-24T05:01:01.086Z,76.33
2019-02-24T05:03:55.547Z,76.72
2019-02-24T05:06:43.083Z,75.69
2019-02-24T05:12:36.437Z,76.64
2019-02-24T05:18:29.817Z,74.52
2019-02-24T05:33:42.984Z,74.30
2019-02-24T05:36:31.402Z,75.01
2019-02-24T05:39:17.325Z,75.38
2019-02-24T05:42:04.830Z,74.20
2019-02-24T05:45:07.625Z,74.88
2019-02-24T05:54:07.547Z,75.08
2019-02-24T06:03:08.205Z,76.05
2019-02-24T06:09:01.830Z,76.35
2019-02-24T06:11:49.073Z,76.61
2019-02-24T06:14:36.539Z,76.80
2019-02-24T06:17:23.811Z,76.94
2019-02-24T06:20:12.100Z,75.71
2019-02-24T06:26:06.063Z,75.56
2019-02-24T06:28:53.317Z,76.03
2019-02-24T06:31:40.572Z,76.09
2019-02-24T06:34:27.722Z,76.24
2019-02-24T06:40:21.782Z,76.70
2019-02-24T06:43:08.903Z,77.00
2019-02-24T06:45:56.034Z,75.54
2019-02-24T06:48:43.536Z,76.24
2019-02-24T06:51:30.992Z,76.83
2019-02-24T06:54:18.320Z,77.32
2019-02-24T06:57:05.524Z,77.66
2019-02-24T06:59:53.235Z,77.74
2019-02-24T07:08:53.078Z,78.01
2019-02-24T07:11:40.075Z,78.00
2019-02-24T07:14:42.248Z,77.94
2019-02-24T07:17:29.484Z,77.72
2019-02-24T07:20:16.616Z,77.38
2019-02-24T07:23:03.598Z,77.40
2019-02-24T07:32:04.020Z,76.79
2019-02-24T07:34:51.372Z,76.58
2019-02-24T07:37:38.771Z,76.28
2019-02-24T07:40:26.031Z,76.05
2019-02-24T07:43:13.311Z,75.69
2019-02-24T07:52:13.466Z,76.09
2019-02-24T07:55:01.796Z,76.11
2019-02-24T07:57:48.954Z,76.41
2019-02-24T08:00:35.954Z,76.42
2019-02-24T08:03:23.375Z,76.50
2019-02-24T08:09:24.962Z,76.72
2019-02-24T08:15:20.546Z,76.58
2019-02-24T08:18:07.894Z,76.69
2019-02-24T08:20:55.745Z,76.36
2019-02-24T08:26:49.074Z,75.82
2019-02-24T08:29:36.788Z,75.68
2019-02-24T08:32:27.155Z,75.70
2019-02-24T08:35:14.429Z,75.68
2019-02-24T08:38:01.642Z,75.47
2019-02-24T08:40:49.971Z,74.74
2019-02-24T08:46:43.643Z,73.69
2019-02-24T08:49:31.273Z,73.13
2019-02-24T08:55:24.861Z,72.68
2019-02-24T08:58:12.200Z,72.36
2019-02-24T09:00:59.410Z,72.27
2019-02-24T09:03:46.812Z,71.67
2019-02-24T09:06:34.059Z,71.77
2019-02-24T09:12:28.440Z,71.06
2019-02-24T09:15:15.467Z,70.85
2019-02-24T09:18:02.963Z,70.97
2019-02-24T09:20:51.427Z,70.67
2019-02-24T09:29:52.780Z,67.48
2019-02-24T09:45:05.952Z,66.37
2019-02-24T09:47:55.121Z,66.06
2019-02-24T09:50:43.258Z,65.77
2019-02-24T09:53:30.780Z,66.37
2019-02-24T09:56:19.230Z,66.30
2019-02-24T09:59:08.194Z,61.92
2019-02-24T10:01:55.597Z,63.83
2019-02-24T10:07:50.509Z,65.18
2019-02-24T10:13:45.923Z,65.28
2019-02-24T10:19:42.590Z,65.37
2019-02-24T10:25:36.368Z,61.40
2019-02-24T10:28:24.595Z,63.61
2019-02-24T10:31:19.595Z,60.61
2019-02-24T10:37:06.103Z,60.78
2019-02-24T10:43:06.777Z,64.24
2019-02-24T10:46:01.979Z,60.75
2019-02-24T10:48:49.247Z,62.75
2019-02-24T10:51:37.609Z,63.08
2019-02-24T11:00:38.797Z,60.91
2019-02-24T11:03:25.864Z,61.52
2019-02-24T11:06:15.041Z,61.38
2019-02-24T11:15:15.317Z,57.63
2019-02-24T11:18:03.431Z,58.12
2019-02-24T11:20:50.790Z,53.74
2019-02-24T11:23:37.966Z,56.43
2019-02-24T11:29:42.106Z,58.03
2019-02-24T11:32:29.224Z,57.88
2019-02-24T11:35:23.741Z,57.08
2019-02-24T11:38:11.240Z,57.68
2019-02-24T11:41:01.063Z,57.83
2019-02-24T11:43:46.386Z,55.65
2019-02-24T11:46:34.223Z,55.13
2019-02-24T11:49:21.702Z,55.84
2019-02-24T11:52:09.076Z,50.85
2019-02-24T11:54:56.548Z,54.19
2019-02-24T11:57:51.569Z,48.29
2019-02-24T12:00:40.527Z,52.45
2019-02-24T12:03:28.901Z,51.64
2019-02-24T12:09:24.595Z,51.46
2019-02-24T12:15:18.791Z,54.38
2019-02-24T12:21:13.157Z,52.74
2019-02-24T12:30:19.130Z,53.77
2019-02-24T12:33:21.036Z,53.48
2019-02-24T12:36:23.548Z,52.39
2019-02-24T12:39:10.769Z,51.16
2019-02-24T12:42:05.510Z,45.38
2019-02-24T12:44:52.681Z,48.12
2019-02-24T12:47:40.185Z,49.78
2019-02-24T12:50:27.933Z,49.41
2019-02-24T13:02:36.832Z,49.59
2019-02-24T13:05:23.773Z,49.39
2019-02-24T13:08:25.799Z,50.14
2019-02-24T13:11:13.176Z,48.66
2019-02-24T13:14:00.234Z,43.68
2019-02-24T13:20:10.024Z,47.17
2019-02-24T13:23:10.579Z,43.48
2019-02-24T13:32:14.950Z,47.41
2019-02-24T13:34:58.856Z,46.06
2019-02-24T13:37:53.587Z,47.46
2019-02-24T13:40:40.995Z,48.30
2019-02-24T13:43:28.729Z,48.87
2019-02-24T13:55:46.602Z,43.06
2019-02-24T13:58:34.284Z,46.45
2019-02-24T14:04:38.148Z,48.04
2019-02-24T14:07:25.494Z,48.19
2019-02-24T14:10:12.412Z,48.27
2019-02-24T14:12:59.772Z,48.69
2019-02-24T14:15:54.471Z,49.22
2019-02-24T14:18:41.888Z,49.30
2019-02-24T14:21:29.265Z,49.20
2019-02-24T14:24:24.020Z,49.43
2019-02-24T14:27:12.138Z,50.61
2019-02-24T14:29:59.796Z,50.86
2019-02-24T14:32:47.402Z,51.46
2019-02-24T14:35:49.200Z,51.66
2019-02-24T14:44:56.552Z,52.15
2019-02-24T14:47:43.861Z,52.26
2019-02-24T14:50:31.490Z,52.46
2019-02-24T14:53:18.977Z,53.02
2019-02-24T14:56:06.703Z,54.15
2019-02-24T14:58:53.975Z,54.29
2019-02-24T15:04:48.342Z,54.00
2019-02-24T15:07:35.912Z,54.46
2019-02-24T15:10:23.116Z,54.34
2019-02-24T15:13:10.645Z,54.72
2019-02-24T15:19:05.084Z,55.07
2019-02-24T15:21:52.307Z,55.23
2019-02-24T15:24:40.855Z,55.02
2019-02-24T15:30:41.855Z,55.71
2019-02-24T15:33:28.839Z,55.88
2019-02-24T15:39:37.354Z,56.28
2019-02-24T15:42:24.497Z,56.73
2019-02-24T15:45:11.722Z,57.03
2019-02-24T15:48:00.038Z,57.33
2019-02-24T15:50:47.485Z,57.46
2019-02-24T15:59:48.748Z,58.25
2019-02-24T16:05:42.297Z,58.78
2019-02-24T16:14:45.654Z,59.98
2019-02-24T16:17:33.155Z,60.55
2019-02-24T16:20:26.625Z,60.89
2019-02-24T16:23:16.167Z,61.12
2019-02-24T16:26:03.329Z,61.06
2019-02-24T16:28:50.525Z,61.14
2019-02-24T16:31:38.100Z,61.27
2019-02-24T16:43:46.639Z,61.61
2019-02-24T16:46:34.940Z,61.72
2019-02-24T16:49:22.633Z,61.73
2019-02-24T16:52:10.346Z,61.48
2019-02-24T16:54:57.571Z,61.15
2019-02-24T16:57:44.606Z,61.10
2019-02-24T17:00:31.756Z,60.94
2019-02-24T17:03:20.173Z,61.11
2019-02-24T17:06:06.194Z,61.21
2019-02-24T17:09:00.596Z,59.00
2019-02-24T17:11:40.641Z,60.48
2019-02-24T17:14:28.634Z,61.12
2019-02-24T17:20:28.475Z,62.06
2019-02-24T17:26:21.825Z,62.54
2019-02-24T17:35:22.651Z,63.17
2019-02-24T17:41:15.744Z,63.35
2019-02-24T17:44:03.518Z,63.32
2019-02-24T17:46:51.637Z,63.31
2019-02-24T17:49:39.907Z,63.34
2019-02-24T17:55:33.936Z,63.64
2019-02-24T18:01:28.670Z,64.27
2019-02-24T18:04:19.413Z,61.93
2019-02-24T18:07:08.196Z,63.57
2019-02-24T18:09:55.839Z,64.52
2019-02-24T18:12:44.295Z,64.78
2019-02-24T18:15:31.405Z,64.61
2019-02-24T18:18:18.522Z,65.43
2019-02-24T18:21:06.633Z,64.29
2019-02-24T18:26:59.526Z,65.93
2019-02-24T18:29:49.499Z,66.73
2019-02-24T18:32:36.485Z,67.29
2019-02-24T18:35:31.389Z,66.92
2019-02-24T18:38:18.534Z,67.02
2019-02-24T18:41:06.055Z,67.29
2019-02-24T18:44:00.949Z,66.93
2019-02-24T18:46:55.118Z,67.59
2019-02-24T18:49:42.428Z,68.08
2019-02-24T18:52:29.435Z,67.76
2019-02-24T18:55:17.900Z,68.41
2019-02-24T18:58:07.329Z,68.95
2019-02-24T19:00:56.559Z,67.42
2019-02-24T19:06:52.374Z,69.61
2019-02-24T19:09:40.387Z,69.62
2019-02-24T19:18:48.529Z,68.18
2019-02-24T19:21:36.651Z,69.22
2019-02-24T19:27:29.935Z,69.57
2019-02-24T19:33:23.305Z,69.89
2019-02-24T19:36:10.831Z,70.06
2019-02-24T19:38:58.050Z,70.23
2019-02-24T19:41:48.219Z,70.80
2019-02-24T19:44:39.840Z,71.30
2019-02-24T19:47:27.283Z,71.86
2019-02-24T19:50:29.149Z,72.09
2019-02-24T19:53:17.072Z,72.50
2019-02-24T19:56:04.293Z,71.84
2019-02-24T20:11:30.313Z,71.31
2019-02-24T20:14:18.455Z,72.53
2019-02-24T20:17:06.845Z,73.32
2019-02-24T20:23:15.008Z,73.86
2019-02-24T20:26:02.946Z,73.47
2019-02-24T20:28:54.059Z,72.74
2019-02-24T20:37:53.595Z,72.44
2019-02-24T20:44:01.483Z,72.47
2019-02-24T20:50:02.527Z,71.66
2019-02-24T20:52:49.846Z,72.47
2019-02-24T20:58:43.149Z,72.38
2019-02-24T21:01:30.997Z,72.16
2019-02-24T21:04:18.488Z,72.03
2019-02-24T21:07:05.462Z,71.86
2019-02-24T21:09:52.733Z,71.98
2019-02-24T21:12:39.977Z,72.27
2019-02-24T21:15:28.190Z,71.24
2019-02-24T21:18:15.514Z,72.33
2019-02-24T21:21:02.628Z,72.75
2019-02-24T21:23:50.362Z,72.81
2019-02-24T21:26:37.377Z,72.60
2019-02-24T21:32:30.540Z,73.12
2019-02-24T21:35:17.776Z,73.13
2019-02-24T21:38:05.784Z,73.16
2019-02-24T21:41:07.253Z,73.25
2019-02-24T21:43:54.448Z,73.40
2019-02-24T21:46:41.707Z,73.42
2019-02-24T21:49:29.417Z,73.24
2019-02-24T21:52:17.100Z,73.06
2019-02-24T21:55:05.677Z,73.02
2019-02-24T21:57:53.123Z,72.79
2019-02-24T22:00:40.239Z,72.67
2019-02-24T22:03:27.664Z,72.51
2019-02-24T22:06:14.985Z,72.53
2019-02-24T22:09:03.105Z,73.21
2019-02-24T22:14:57.701Z,73.03
2019-02-24T22:17:45.030Z,73.40
2019-02-24T22:23:38.418Z,73.22
2019-02-24T22:26:25.342Z,73.08
2019-02-24T22:29:12.781Z,73.61
2019-02-24T22:32:00.278Z,73.95
2019-02-24T22:37:54.858Z,73.71
2019-02-24T22:43:49.356Z,71.98
2019-02-24T22:46:37.630Z,72.47
2019-02-24T22:52:31.294Z,73.25
2019-02-24T22:55:18.592Z,73.08
2019-02-24T22:58:05.991Z,73.00
2019-02-24T23:00:55.728Z,72.97
2019-02-24T23:03:42.728Z,73.54
2019-02-24T23:09:39.150Z,74.26
2019-02-24T23:12:26.987Z,73.73
2019-02-24T23:15:14.944Z,73.33
2019-02-24T23:18:01.960Z,73.49
2019-02-24T23:20:48.974Z,73.31
2019-02-24T23:23:36.701Z,73.28
2019-02-24T23:29:32.837Z,73.35
2019-02-24T23:32:20.361Z,73.30
2019-02-24T23:35:07.386Z,73.26
2019-02-24T23:37:55.003Z,73.89
2019-02-24T23:40:44.159Z,74.45
2019-02-24T23:49:44.100Z,74.09
2019-02-24T23:52:32.203Z,73.25
2019-02-24T23:55:20.456Z,74.13
2019-02-24T23:58:07.910Z,74.25
